CPX458 Details

Departure: Tampa International Airport (KTPA)
Arrival: Chicago/Rockford International Airport (KRFD)
Route: ENDED8 LACEN BRUTS Q118 ATL BWG SPI BDF QUOTE


Current Weather Information
KTPA 171653Z 18006KT 10SM FEW032 SCT043 BKN090 OVC130 26/23 A3012 RMK AO2 RAE22 SLP200 P0001 T02560228 $
KRFD 171654Z 10007KT 10SM FEW040 BKN150 BKN250 24/19 A2991 RMK AO2 SLP124 T02390194